sensor_id;sensor_type;location;lat;lon;timestamp;pressure;altitude;pressure_sealevel;temperature;humidity
70815;BME280;58428;49.478;10.986;2023-04-10T00:02:18;99184.72;;;6.56;100.00
70815;BME280;58428;49.478;10.986;2023-04-10T00:04:44;99196.53;;;6.60;100.00
70815;BME280;58428;49.478;10.986;2023-04-10T00:07:11;99185.53;;;6.57;100.00
70815;BME280;58428;49.478;10.986;2023-04-10T00:09:37;99183.41;;;6.54;100.00
70815;BME280;58428;49.478;10.986;2023-04-10T00:12:03;99189.56;;;6.54;100.00
70815;BME280;58428;49.478;10.986;2023-04-10T00:14:28;99188.00;;;6.48;100.00
70815;BME280;58428;49.478;10.986;2023-04-10T00:16:54;99188.34;;;6.42;100.00
70815;BME280;58428;49.478;10.986;2023-04-10T00:19:24;99194.31;;;6.34;100.00
70815;BME280;58428;49.478;10.986;2023-04-10T00:21:49;99185.72;;;6.32;100.00
70815;BME280;58428;49.478;10.986;2023-04-10T00:24:15;99187.09;;;6.29;100.00
70815;BME280;58428;49.478;10.986;2023-04-10T00:26:42;99175.00;;;6.27;100.00
70815;BME280;58428;49.478;10.986;2023-04-10T00:29:07;99179.31;;;6.23;100.00
70815;BME280;58428;49.478;10.986;2023-04-10T00:31:32;99175.31;;;6.21;100.00
70815;BME280;58428;49.478;10.986;2023-04-10T00:33:58;99176.44;;;6.15;100.00
70815;BME280;58428;49.478;10.986;2023-04-10T00:36:26;99178.06;;;6.16;100.00
70815;BME280;58428;49.478;10.986;2023-04-10T00:38:53;99164.91;;;6.14;100.00
70815;BME280;58428;49.478;10.986;2023-04-10T00:41:19;99161.41;;;6.14;100.00
70815;BME280;58428;49.478;10.986;2023-04-10T00:43:44;99151.22;;;6.11;100.00
70815;BME280;58428;49.478;10.986;2023-04-10T00:46:10;99157.16;;;6.08;100.00
70815;BME280;58428;49.478;10.986;2023-04-10T00:48:36;99163.88;;;6.05;100.00
70815;BME280;58428;49.478;10.986;2023-04-10T00:51:03;99166.84;;;6.04;100.00
70815;BME280;58428;49.478;10.986;2023-04-10T00:53:31;99161.25;;;6.00;100.00
70815;BME280;58428;49.478;10.986;2023-04-10T00:55:58;99165.56;;;5.96;100.00
70815;BME280;58428;49.478;10.986;2023-04-10T00:58:24;99164.78;;;5.91;100.00
70815;BME280;58428;49.478;10.986;2023-04-10T01:00:50;99167.47;;;5.86;100.00
70815;BME280;58428;49.478;10.986;2023-04-10T01:03:19;99169.69;;;5.79;100.00
70815;BME280;58428;49.478;10.986;2023-04-10T01:05:55;99168.88;;;5.69;100.00
70815;BME280;58428;49.478;10.986;2023-04-10T01:08:31;99168.13;;;5.63;100.00
70815;BME280;58428;49.478;10.986;2023-04-10T01:11:05;99163.31;;;5.60;100.00
70815;BME280;58428;49.478;10.986;2023-04-10T01:13:33;99161.94;;;5.63;100.00
70815;BME280;58428;49.478;10.986;2023-04-10T01:16:23;99168.41;;;5.62;100.00
70815;BME280;58428;49.478;10.986;2023-04-10T01:18:59;99164.94;;;5.61;100.00
70815;BME280;58428;49.478;10.986;2023-04-10T01:21:33;99166.31;;;5.54;100.00
70815;BME280;58428;49.478;10.986;2023-04-10T01:27:11;99164.19;;;5.41;100.00
70815;BME280;58428;49.478;10.986;2023-04-10T01:29:38;99159.63;;;5.47;100.00
70815;BME280;58428;49.478;10.986;2023-04-10T01:32:13;99160.69;;;5.50;100.00
70815;BME280;58428;49.478;10.986;2023-04-10T01:34:40;99168.19;;;5.48;100.00
70815;BME280;58428;49.478;10.986;2023-04-10T01:37:12;99158.81;;;5.46;100.00
70815;BME280;58428;49.478;10.986;2023-04-10T01:39:43;99159.09;;;5.40;100.00
70815;BME280;58428;49.478;10.986;2023-04-10T01:42:13;99162.63;;;5.35;100.00
70815;BME280;58428;49.478;10.986;2023-04-10T01:44:41;99164.78;;;5.33;100.00
70815;BME280;58428;49.478;10.986;2023-04-10T01:47:08;99164.78;;;5.28;100.00
70815;BME280;58428;49.478;10.986;2023-04-10T01:49:34;99164.25;;;5.26;100.00
70815;BME280;58428;49.478;10.986;2023-04-10T01:52:02;99167.50;;;5.23;100.00
70815;BME280;58428;49.478;10.986;2023-04-10T01:54:31;99172.84;;;5.23;100.00
70815;BME280;58428;49.478;10.986;2023-04-10T01:56:59;99176.38;;;5.19;100.00
70815;BME280;58428;49.478;10.986;2023-04-10T01:59:25;99162.69;;;5.15;100.00
70815;BME280;58428;49.478;10.986;2023-04-10T02:01:58;99170.47;;;5.12;100.00
70815;BME280;58428;49.478;10.986;2023-04-10T02:04:23;99168.88;;;5.11;100.00
70815;BME280;58428;49.478;10.986;2023-04-10T02:12:12;99166.44;;;5.14;100.00
70815;BME280;58428;49.478;10.986;2023-04-10T02:14:45;99163.00;;;5.09;100.00
70815;BME280;58428;49.478;10.986;2023-04-10T02:17:17;99167.53;;;5.09;100.00
70815;BME280;58428;49.478;10.986;2023-04-10T02:19:46;99168.34;;;5.09;100.00
70815;BME280;58428;49.478;10.986;2023-04-10T02:22:14;99168.88;;;5.11;100.00
70815;BME280;58428;49.478;10.986;2023-04-10T02:24:41;99170.47;;;5.12;100.00
70815;BME280;58428;49.478;10.986;2023-04-10T02:27:07;99173.72;;;5.09;100.00
70815;BME280;58428;49.478;10.986;2023-04-10T02:29:32;99173.19;;;5.07;100.00
70815;BME280;58428;49.478;10.986;2023-04-10T02:31:58;99168.09;;;5.01;100.00
70815;BME280;58428;49.478;10.986;2023-04-10T02:34:23;99173.19;;;4.97;100.00
70815;BME280;58428;49.478;10.986;2023-04-10T02:36:49;99180.72;;;4.90;100.00
70815;BME280;58428;49.478;10.986;2023-04-10T02:39:14;99179.38;;;4.83;100.00
70815;BME280;58428;49.478;10.986;2023-04-10T02:41:42;99188.25;;;4.78;100.00
70815;BME280;58428;49.478;10.986;2023-04-10T02:44:08;99181.53;;;4.76;100.00
70815;BME280;58428;49.478;10.986;2023-04-10T02:46:33;99181.00;;;4.74;100.00
70815;BME280;58428;49.478;10.986;2023-04-10T02:49:00;99183.69;;;4.74;100.00
70815;BME280;58428;49.478;10.986;2023-04-10T02:51:25;99179.66;;;4.72;100.00
70815;BME280;58428;49.478;10.986;2023-04-10T02:53:51;99185.81;;;4.72;100.00
70815;BME280;58428;49.478;10.986;2023-04-10T02:56:17;99181.03;;;4.69;100.00
70815;BME280;58428;49.478;10.986;2023-04-10T02:58:43;99174.88;;;4.69;100.00
70815;BME280;58428;49.478;10.986;2023-04-10T03:01:10;99177.00;;;4.62;100.00
70815;BME280;58428;49.478;10.986;2023-04-10T03:03:36;99180.22;;;4.54;100.00
70815;BME280;58428;49.478;10.986;2023-04-10T03:06:02;99177.81;;;4.47;100.00
70815;BME280;58428;49.478;10.986;2023-04-10T03:08:27;99172.44;;;4.52;100.00
70815;BME280;58428;49.478;10.986;2023-04-10T03:10:54;99170.84;;;4.51;100.00
70815;BME280;58428;49.478;10.986;2023-04-10T03:13:21;99173.53;;;4.51;100.00
70815;BME280;58428;49.478;10.986;2023-04-10T03:15:47;99174.88;;;4.54;100.00
70815;BME280;58428;49.478;10.986;2023-04-10T03:18:15;99174.06;;;4.53;100.00
70815;BME280;58428;49.478;10.986;2023-04-10T03:20:42;99166.28;;;4.52;100.00
70815;BME280;58428;49.478;10.986;2023-04-10T03:23:07;99174.34;;;4.52;100.00
70815;BME280;58428;49.478;10.986;2023-04-10T03:25:33;99174.63;;;4.36;100.00
70815;BME280;58428;49.478;10.986;2023-04-10T03:27:58;99169.78;;;4.23;100.00
70815;BME280;58428;49.478;10.986;2023-04-10T03:30:25;99171.13;;;4.20;100.00
70815;BME280;58428;49.478;10.986;2023-04-10T03:32:51;99168.97;;;4.17;100.00
70815;BME280;58428;49.478;10.986;2023-04-10T03:35:16;99166.56;;;4.16;100.00
70815;BME280;58428;49.478;10.986;2023-04-10T03:37:43;99170.56;;;4.13;100.00
70815;BME280;58428;49.478;10.986;2023-04-10T03:40:12;99169.25;;;4.11;100.00
70815;BME280;58428;49.478;10.986;2023-04-10T03:42:38;99167.63;;;4.10;100.00
70815;BME280;58428;49.478;10.986;2023-04-10T03:45:04;99172.19;;;4.09;100.00
70815;BME280;58428;49.478;10.986;2023-04-10T03:47:31;99159.59;;;4.05;100.00
70815;BME280;58428;49.478;10.986;2023-04-10T03:49:56;99164.66;;;4.02;100.00
70815;BME280;58428;49.478;10.986;2023-04-10T03:52:24;99157.69;;;4.01;100.00
70815;BME280;58428;49.478;10.986;2023-04-10T03:54:49;99156.38;;;4.03;100.00
70815;BME280;58428;49.478;10.986;2023-04-10T03:57:17;99156.94;;;4.15;100.00
70815;BME280;58428;49.478;10.986;2023-04-10T03:59:44;99152.38;;;4.25;100.00
70815;BME280;58428;49.478;10.986;2023-04-10T04:02:10;99160.94;;;4.22;100.00
70815;BME280;58428;49.478;10.986;2023-04-10T04:04:35;99158.53;;;4.21;100.00
70815;BME280;58428;49.478;10.986;2023-04-10T04:07:01;99165.47;;;4.22;100.00
70815;BME280;58428;49.478;10.986;2023-04-10T04:09:26;99164.69;;;4.21;100.00
70815;BME280;58428;49.478;10.986;2023-04-10T04:11:52;99156.66;;;4.21;100.00
70815;BME280;58428;49.478;10.986;2023-04-10T04:14:17;99155.03;;;4.15;100.00
70815;BME280;58428;49.478;10.986;2023-04-10T04:16:43;99158.28;;;4.12;100.00
70815;BME280;58428;49.478;10.986;2023-04-10T04:19:10;99163.31;;;4.04;100.00
70815;BME280;58428;49.478;10.986;2023-04-10T04:21:35;99166.25;;;4.02;100.00
70815;BME280;58428;49.478;10.986;2023-04-10T04:24:02;99161.97;;;3.97;100.00
70815;BME280;58428;49.478;10.986;2023-04-10T04:26:27;99171.06;;;3.91;100.00
70815;BME280;58428;49.478;10.986;2023-04-10T04:28:53;99167.31;;;3.87;100.00
70815;BME280;58428;49.478;10.986;2023-04-10T04:31:18;99173.75;;;3.86;100.00
70815;BME280;58428;49.478;10.986;2023-04-10T04:33:44;99174.25;;;3.83;100.00
70815;BME280;58428;49.478;10.986;2023-04-10T04:36:11;99171.88;;;3.81;100.00
70815;BME280;58428;49.478;10.986;2023-04-10T04:38:37;99176.41;;;3.81;100.00
70815;BME280;58428;49.478;10.986;2023-04-10T04:41:02;99178.28;;;3.80;100.00
70815;BME280;58428;49.478;10.986;2023-04-10T04:43:28;99180.97;;;3.80;100.00
70815;BME280;58428;49.478;10.986;2023-04-10T04:45:53;99170.78;;;3.82;100.00
70815;BME280;58428;49.478;10.986;2023-04-10T04:48:19;99178.31;;;3.85;100.00
70815;BME280;58428;49.478;10.986;2023-04-10T04:50:44;99185.25;;;3.86;100.00
70815;BME280;58428;49.478;10.986;2023-04-10T04:53:10;99179.63;;;3.88;100.00
70815;BME280;58428;49.478;10.986;2023-04-10T04:55:36;99192.47;;;3.81;100.00
70815;BME280;58428;49.478;10.986;2023-04-10T04:58:03;99192.75;;;3.79;100.00
70815;BME280;58428;49.478;10.986;2023-04-10T05:00:29;99193.81;;;3.78;100.00
70815;BME280;58428;49.478;10.986;2023-04-10T05:02:54;99191.66;;;3.80;100.00
70815;BME280;58428;49.478;10.986;2023-04-10T05:05:20;99195.41;;;3.84;100.00
70815;BME280;58428;49.478;10.986;2023-04-10T05:07:47;99195.16;;;3.91;100.00
70815;BME280;58428;49.478;10.986;2023-04-10T05:10:13;99199.44;;;3.97;100.00
70815;BME280;58428;49.478;10.986;2023-04-10T05:12:41;99197.06;;;4.05;100.00
70815;BME280;58428;49.478;10.986;2023-04-10T05:15:07;99203.75;;;4.07;100.00
70815;BME280;58428;49.478;10.986;2023-04-10T05:17:33;99211.53;;;4.09;100.00
70815;BME280;58428;49.478;10.986;2023-04-10T05:19:58;99208.31;;;4.07;100.00
70815;BME280;58428;49.478;10.986;2023-04-10T05:22:24;99210.75;;;4.08;100.00
70815;BME280;58428;49.478;10.986;2023-04-10T05:24:52;99204.03;;;4.06;100.00
70815;BME280;58428;49.478;10.986;2023-04-10T05:27:20;99200.28;;;4.12;100.00
70815;BME280;58428;49.478;10.986;2023-04-10T05:29:45;99193.09;;;4.22;100.00
70815;BME280;58428;49.478;10.986;2023-04-10T05:32:11;99193.88;;;4.33;100.00
70815;BME280;58428;49.478;10.986;2023-04-10T05:34:36;99185.84;;;4.42;100.00
70815;BME280;58428;49.478;10.986;2023-04-10T05:37:01;99189.34;;;4.48;100.00
70815;BME280;58428;49.478;10.986;2023-04-10T05:39:27;99179.16;;;4.55;100.00
70815;BME280;58428;49.478;10.986;2023-04-10T05:41:52;99180.22;;;4.64;100.00
70815;BME280;58428;49.478;10.986;2023-04-10T05:44:18;99176.69;;;4.78;100.00
70815;BME280;58428;49.478;10.986;2023-04-10T05:46:43;99180.72;;;4.90;100.00
70815;BME280;58428;49.478;10.986;2023-04-10T05:49:09;99189.84;;;4.94;100.00
70815;BME280;58428;49.478;10.986;2023-04-10T05:51:35;99186.84;;;5.01;100.00
70815;BME280;58428;49.478;10.986;2023-04-10T05:54:02;99188.94;;;5.18;100.00
70815;BME280;58428;49.478;10.986;2023-04-10T05:56:27;99189.19;;;5.32;100.00
70815;BME280;58428;49.478;10.986;2023-04-10T05:58:53;99180.28;;;5.46;100.00
70815;BME280;58428;49.478;10.986;2023-04-10T06:01:18;99188.56;;;5.59;100.00
70815;BME280;58428;49.478;10.986;2023-04-10T06:03:44;99188.88;;;5.48;100.00
70815;BME280;58428;49.478;10.986;2023-04-10T06:06:09;99188.34;;;5.41;100.00
70815;BME280;58428;49.478;10.986;2023-04-10T06:08:35;99188.63;;;5.40;100.00
70815;BME280;58428;49.478;10.986;2023-04-10T06:11:00;99185.09;;;5.49;100.00
70815;BME280;58428;49.478;10.986;2023-04-10T06:13:26;99182.09;;;5.60;100.00
70815;BME280;58428;49.478;10.986;2023-04-10T06:15:51;99181.81;;;5.62;100.00
70815;BME280;58428;49.478;10.986;2023-04-10T06:18:17;99182.34;;;5.74;100.00
70815;BME280;58428;49.478;10.986;2023-04-10T06:20:58;99180.69;;;5.78;100.00
70815;BME280;58428;49.478;10.986;2023-04-10T06:23:26;99173.31;;;5.98;100.00
70815;BME280;58428;49.478;10.986;2023-04-10T06:25:55;99175.91;;;6.13;100.00
70815;BME280;58428;49.478;10.986;2023-04-10T06:28:39;99173.13;;;6.27;100.00
70815;BME280;58428;49.478;10.986;2023-04-10T06:31:23;99178.94;;;6.39;100.00
70815;BME280;58428;49.478;10.986;2023-04-10T06:34:15;99173.75;;;6.53;100.00
70815;BME280;58428;49.478;10.986;2023-04-10T06:36:48;99169.31;;;6.66;100.00
70815;BME280;58428;49.478;10.986;2023-04-10T06:39:14;99173.56;;;6.72;100.00
70815;BME280;58428;49.478;10.986;2023-04-10T06:41:40;99166.78;;;6.80;100.00
70815;BME280;58428;49.478;10.986;2023-04-10T06:44:06;99165.34;;;6.87;100.00
70815;BME280;58428;49.478;10.986;2023-04-10T06:46:32;99169.19;;;7.04;100.00
70815;BME280;58428;49.478;10.986;2023-04-10T06:48:59;99162.91;;;7.14;100.00
70815;BME280;58428;49.478;10.986;2023-04-10T06:51:25;99156.56;;;7.28;100.00
70815;BME280;58428;49.478;10.986;2023-04-10T06:53:51;99170.69;;;7.38;100.00
70815;BME280;58428;49.478;10.986;2023-04-10T06:56:20;99164.13;;;7.49;100.00
70815;BME280;58428;49.478;10.986;2023-04-10T06:58:55;99169.09;;;7.61;100.00
70815;BME280;58428;49.478;10.986;2023-04-10T07:01:25;99170.50;;;7.76;100.00
70815;BME280;58428;49.478;10.986;2023-04-10T07:04:10;99179.19;;;7.92;100.00
70815;BME280;58428;49.478;10.986;2023-04-10T07:09:32;99168.78;;;8.22;100.00
70815;BME280;58428;49.478;10.986;2023-04-10T07:15:24;99152.72;;;8.48;100.00
70815;BME280;58428;49.478;10.986;2023-04-10T07:17:57;99160.22;;;8.51;100.00
70815;BME280;58428;49.478;10.986;2023-04-10T07:20:43;99160.34;;;8.60;100.00
70815;BME280;58428;49.478;10.986;2023-04-10T07:23:39;99155.28;;;8.72;100.00
70815;BME280;58428;49.478;10.986;2023-04-10T07:26:25;99156.34;;;8.89;100.00
70815;BME280;58428;49.478;10.986;2023-04-10T07:29:05;99142.06;;;9.02;100.00
70815;BME280;58428;49.478;10.986;2023-04-10T07:32:15;99145.88;;;9.14;100.00
70815;BME280;58428;49.478;10.986;2023-04-10T07:34:48;99135.88;;;9.28;100.00
70815;BME280;58428;49.478;10.986;2023-04-10T07:37:23;99133.47;;;9.40;100.00
70815;BME280;58428;49.478;10.986;2023-04-10T07:40:01;99135.38;;;9.53;100.00
70815;BME280;58428;49.478;10.986;2023-04-10T07:46:05;99120.81;;;9.75;100.00
70815;BME280;58428;49.478;10.986;2023-04-10T07:48:57;99115.03;;;9.95;100.00
70815;BME280;58428;49.478;10.986;2023-04-10T07:51:44;99122.41;;;10.03;100.00
70815;BME280;58428;49.478;10.986;2023-04-10T07:54:48;99108.50;;;10.18;100.00
70815;BME280;58428;49.478;10.986;2023-04-10T07:57:16;99119.28;;;10.31;100.00
70815;BME280;58428;49.478;10.986;2023-04-10T08:00:14;99120.69;;;10.50;100.00
70815;BME280;58428;49.478;10.986;2023-04-10T08:05:56;99110.66;;;10.72;100.00
70815;BME280;58428;49.478;10.986;2023-04-10T08:09:00;99109.91;;;10.80;100.00
70815;BME280;58428;49.478;10.986;2023-04-10T08:24:23;99099.84;;;11.49;100.00
70815;BME280;58428;49.478;10.986;2023-04-10T08:26:56;99108.81;;;11.58;100.00
70815;BME280;58428;49.478;10.986;2023-04-10T08:29:25;99107.88;;;11.63;100.00
70815;BME280;58428;49.478;10.986;2023-04-10T08:31:50;99113.59;;;11.61;100.00
70815;BME280;58428;49.478;10.986;2023-04-10T08:34:19;99097.84;;;11.63;100.00
70815;BME280;58428;49.478;10.986;2023-04-10T08:36:44;99102.63;;;11.66;100.00
70815;BME280;58428;49.478;10.986;2023-04-10T08:39:15;99101.53;;;11.76;100.00
70815;BME280;58428;49.478;10.986;2023-04-10T08:41:43;99094.34;;;11.88;100.00
70815;BME280;58428;49.478;10.986;2023-04-10T08:44:16;99087.03;;;11.97;100.00
70815;BME280;58428;49.478;10.986;2023-04-10T08:46:43;99092.31;;;12.10;100.00
70815;BME280;58428;49.478;10.986;2023-04-10T08:52:03;99095.81;;;12.27;100.00
70815;BME280;58428;49.478;10.986;2023-04-10T08:54:37;99089.22;;;12.37;100.00
70815;BME280;58428;49.478;10.986;2023-04-10T08:57:11;99083.34;;;12.43;100.00
70815;BME280;58428;49.478;10.986;2023-04-10T09:00:08;99087.63;;;12.44;100.00
70815;BME280;58428;49.478;10.986;2023-04-10T09:02:37;99085.09;;;12.48;100.00
70815;BME280;58428;49.478;10.986;2023-04-10T09:05:03;99086.19;;;12.55;100.00
70815;BME280;58428;49.478;10.986;2023-04-10T09:07:32;99082.50;;;12.68;100.00
70815;BME280;58428;49.478;10.986;2023-04-10T09:13:34;99068.38;;;12.99;100.00
70815;BME280;58428;49.478;10.986;2023-04-10T09:16:12;99070.56;;;13.14;100.00
70815;BME280;58428;49.478;10.986;2023-04-10T09:19:25;99065.34;;;13.29;100.00
70815;BME280;58428;49.478;10.986;2023-04-10T09:25:37;99057.03;;;13.55;100.00
70815;BME280;58428;49.478;10.986;2023-04-10T09:28:16;99052.22;;;13.60;100.00
70815;BME280;58428;49.478;10.986;2023-04-10T09:34:50;99047.25;;;13.62;100.00
70815;BME280;58428;49.478;10.986;2023-04-10T09:37:38;99035.91;;;13.60;100.00
70815;BME280;58428;49.478;10.986;2023-04-10T09:40:22;99036.81;;;13.72;100.00
70815;BME280;58428;49.478;10.986;2023-04-10T09:43:24;99045.34;;;13.83;100.00
70815;BME280;58428;49.478;10.986;2023-04-10T09:51:45;99023.78;;;13.98;100.00
70815;BME280;58428;49.478;10.986;2023-04-10T09:57:49;99001.78;;;14.11;100.00
70815;BME280;58428;49.478;10.986;2023-04-10T10:00:40;99001.22;;;14.18;100.00
70815;BME280;58428;49.478;10.986;2023-04-10T10:06:22;98974.19;;;14.45;100.00
70815;BME280;58428;49.478;10.986;2023-04-10T10:09:08;98981.31;;;14.37;100.00
70815;BME280;58428;49.478;10.986;2023-04-10T10:11:42;98972.94;;;14.42;100.00
70815;BME280;58428;49.478;10.986;2023-04-10T10:17:44;98972.66;;;14.68;100.00
70815;BME280;58428;49.478;10.986;2023-04-10T10:20:31;98964.03;;;14.66;100.00
70815;BME280;58428;49.478;10.986;2023-04-10T10:23:02;98965.72;;;14.70;100.00
70815;BME280;58428;49.478;10.986;2023-04-10T10:25:32;98960.16;;;14.78;100.00
70815;BME280;58428;49.478;10.986;2023-04-10T10:28:09;98961.66;;;14.76;100.00
70815;BME280;58428;49.478;10.986;2023-04-10T10:30:50;98956.31;;;14.91;100.00
70815;BME280;58428;49.478;10.986;2023-04-10T10:33:40;98948.84;;;15.00;100.00
70815;BME280;58428;49.478;10.986;2023-04-10T10:36:15;98947.22;;;15.11;100.00
70815;BME280;58428;49.478;10.986;2023-04-10T10:42:35;98933.88;;;15.18;100.00
70815;BME280;58428;49.478;10.986;2023-04-10T10:45:16;98928.16;;;15.11;100.00
70815;BME280;58428;49.478;10.986;2023-04-10T10:48:04;98929.06;;;15.27;99.55
70815;BME280;58428;49.478;10.986;2023-04-10T10:53:54;98925.75;;;15.45;99.40
70815;BME280;58428;49.478;10.986;2023-04-10T10:59:03;98924.94;;;15.56;95.94
70815;BME280;58428;49.478;10.986;2023-04-10T11:04:41;98908.56;;;15.56;92.74
70815;BME280;58428;49.478;10.986;2023-04-10T11:07:10;98906.13;;;15.67;94.79
70815;BME280;58428;49.478;10.986;2023-04-10T11:09:45;98897.78;;;15.75;90.40
70815;BME280;58428;49.478;10.986;2023-04-10T11:12:14;98894.28;;;15.75;93.04
70815;BME280;58428;49.478;10.986;2023-04-10T11:15:19;98899.84;;;15.78;88.28
70815;BME280;58428;49.478;10.986;2023-04-10T11:21:10;98888.25;;;15.96;88.71
70815;BME280;58428;49.478;10.986;2023-04-10T11:26:42;98872.41;;;16.02;88.45
70815;BME280;58428;49.478;10.986;2023-04-10T11:31:46;98871.28;;;16.03;82.37
70815;BME280;58428;49.478;10.986;2023-04-10T11:34:12;98876.38;;;16.04;82.29
70815;BME280;58428;49.478;10.986;2023-04-10T11:36:46;98865.09;;;15.90;82.47
70815;BME280;58428;49.478;10.986;2023-04-10T11:39:20;98869.25;;;16.00;86.34
70815;BME280;58428;49.478;10.986;2023-04-10T11:41:51;98866.44;;;16.12;85.92
70815;BME280;58428;49.478;10.986;2023-04-10T11:46:57;98858.59;;;16.22;82.00
70815;BME280;58428;49.478;10.986;2023-04-10T11:49:35;98849.03;;;16.31;82.83
70815;BME280;58428;49.478;10.986;2023-04-10T11:52:01;98844.31;;;16.44;83.37
70815;BME280;58428;49.478;10.986;2023-04-10T11:54:27;98840.31;;;16.57;81.86
70815;BME280;58428;49.478;10.986;2023-04-10T11:56:59;98840.94;;;16.65;82.44
70815;BME280;58428;49.478;10.986;2023-04-10T11:59:51;98838.38;;;16.72;79.77
70815;BME280;58428;49.478;10.986;2023-04-10T12:02:19;98832.81;;;16.69;79.23
70815;BME280;58428;49.478;10.986;2023-04-10T12:04:56;98830.97;;;16.73;77.95
70815;BME280;58428;49.478;10.986;2023-04-10T12:07:23;98835.09;;;16.82;77.44
70815;BME280;58428;49.478;10.986;2023-04-10T12:09:57;98835.88;;;16.83;76.66
70815;BME280;58428;49.478;10.986;2023-04-10T12:12:35;98828.22;;;16.88;74.30
70815;BME280;58428;49.478;10.986;2023-04-10T12:15:02;98825.78;;;17.02;78.95
70815;BME280;58428;49.478;10.986;2023-04-10T12:17:28;98826.47;;;16.99;76.69
70815;BME280;58428;49.478;10.986;2023-04-10T12:19:57;98816.59;;;17.10;77.72
70815;BME280;58428;49.478;10.986;2023-04-10T12:22:29;98821.94;;;17.22;77.79
70815;BME280;58428;49.478;10.986;2023-04-10T12:25:00;98814.72;;;17.14;76.36
70815;BME280;58428;49.478;10.986;2023-04-10T12:27:32;98820.72;;;17.19;74.50
70815;BME280;58428;49.478;10.986;2023-04-10T12:29:57;98817.41;;;17.29;76.55
70815;BME280;58428;49.478;10.986;2023-04-10T12:32:26;98810.78;;;17.30;75.98
70815;BME280;58428;49.478;10.986;2023-04-10T12:34:52;98812.19;;;17.21;71.33
70815;BME280;58428;49.478;10.986;2023-04-10T12:37:19;98797.84;;;17.27;75.77
70815;BME280;58428;49.478;10.986;2023-04-10T12:39:47;98804.09;;;17.28;71.81
70815;BME280;58428;49.478;10.986;2023-04-10T12:42:17;98799.78;;;17.27;70.19
70815;BME280;58428;49.478;10.986;2023-04-10T12:44:59;98788.00;;;17.23;68.27
70815;BME280;58428;49.478;10.986;2023-04-10T12:47:27;98782.44;;;17.19;69.45
70815;BME280;58428;49.478;10.986;2023-04-10T12:50:23;98782.09;;;17.21;68.83
70815;BME280;58428;49.478;10.986;2023-04-10T12:53:04;98766.53;;;17.25;67.91
70815;BME280;58428;49.478;10.986;2023-04-10T12:55:40;98766.31;;;17.33;71.18
70815;BME280;58428;49.478;10.986;2023-04-10T12:58:26;98772.72;;;17.40;69.97
70815;BME280;58428;49.478;10.986;2023-04-10T13:01:01;98755.22;;;17.45;69.75
70815;BME280;58428;49.478;10.986;2023-04-10T13:09:05;98756.41;;;17.66;69.87
70815;BME280;58428;49.478;10.986;2023-04-10T13:11:31;98753.97;;;17.61;69.05
70815;BME280;58428;49.478;10.986;2023-04-10T13:14:05;98757.38;;;17.55;68.11
70815;BME280;58428;49.478;10.986;2023-04-10T13:16:31;98745.50;;;17.47;69.08
70815;BME280;58428;49.478;10.986;2023-04-10T13:18:59;98743.56;;;17.48;69.15
70815;BME280;58428;49.478;10.986;2023-04-10T13:21:25;98743.63;;;17.51;68.90
70815;BME280;58428;49.478;10.986;2023-04-10T13:23:53;98743.00;;;17.39;71.42
70815;BME280;58428;49.478;10.986;2023-04-10T13:26:22;98734.97;;;17.49;70.49
70815;BME280;58428;49.478;10.986;2023-04-10T13:28:48;98722.56;;;17.55;68.86
70815;BME280;58428;49.478;10.986;2023-04-10T13:31:13;98717.59;;;17.61;70.59
70815;BME280;58428;49.478;10.986;2023-04-10T13:33:47;98714.19;;;17.67;68.38
70815;BME280;58428;49.478;10.986;2023-04-10T13:36:14;98715.19;;;17.78;68.98
70815;BME280;58428;49.478;10.986;2023-04-10T13:38:40;98715.31;;;17.85;68.25
70815;BME280;58428;49.478;10.986;2023-04-10T13:41:06;98697.72;;;17.86;68.20
70815;BME280;58428;49.478;10.986;2023-04-10T13:43:39;98703.13;;;17.82;67.91
70815;BME280;58428;49.478;10.986;2023-04-10T13:46:19;98703.09;;;17.79;65.12
70815;BME280;58428;49.478;10.986;2023-04-10T13:48:47;98701.41;;;17.71;66.69
70815;BME280;58428;49.478;10.986;2023-04-10T13:51:18;98697.78;;;17.67;66.10
70815;BME280;58428;49.478;10.986;2023-04-10T13:53:44;98678.44;;;17.57;65.82
70815;BME280;58428;49.478;10.986;2023-04-10T13:56:12;98669.94;;;17.62;65.83
70815;BME280;58428;49.478;10.986;2023-04-10T13:58:37;98666.59;;;17.71;64.62
70815;BME280;58428;49.478;10.986;2023-04-10T14:01:03;98685.44;;;17.76;63.27
70815;BME280;58428;49.478;10.986;2023-04-10T14:03:29;98672.78;;;17.68;63.44
70815;BME280;58428;49.478;10.986;2023-04-10T14:05:55;98664.72;;;17.75;64.91
70815;BME280;58428;49.478;10.986;2023-04-10T14:08:20;98660.38;;;17.74;64.25
70815;BME280;58428;49.478;10.986;2023-04-10T14:10:51;98650.72;;;17.58;66.70
70815;BME280;58428;49.478;10.986;2023-04-10T14:13:43;98654.66;;;17.61;67.61
70815;BME280;58428;49.478;10.986;2023-04-10T14:16:11;98649.13;;;17.57;68.43
70815;BME280;58428;49.478;10.986;2023-04-10T14:18:40;98644.41;;;17.54;67.13
70815;BME280;58428;49.478;10.986;2023-04-10T14:21:09;98640.22;;;17.60;66.34
70815;BME280;58428;49.478;10.986;2023-04-10T14:23:34;98636.56;;;17.75;65.45
70815;BME280;58428;49.478;10.986;2023-04-10T14:26:00;98636.16;;;17.76;62.68
70815;BME280;58428;49.478;10.986;2023-04-10T14:28:27;98634.19;;;17.73;62.90
70815;BME280;58428;49.478;10.986;2023-04-10T14:30:53;98636.00;;;17.66;63.08
70815;BME280;58428;49.478;10.986;2023-04-10T14:33:22;98624.16;;;17.59;65.51
70815;BME280;58428;49.478;10.986;2023-04-10T14:35:48;98625.75;;;17.60;63.07
70815;BME280;58428;49.478;10.986;2023-04-10T14:38:14;98622.81;;;17.49;64.97
70815;BME280;58428;49.478;10.986;2023-04-10T14:40:42;98627.84;;;17.47;63.80